Time;durP1;ratioP1;P1;durP2;ratioP2;P2;SDS_P1;SDS_P2;PMS_P1;PMS_P2;Temp;Humidity;BMP_temperature;BMP_pressure;BME280_temperature;BME280_humidity;BME280_pressure;Samples;Min_cycle;Max_cycle;Signal;HPM_P1;HPM_P2
2022/02/05 00:02:30;;;;;;;;;6.50;4.75;;;;;8.08;57.95;102134.66;5041328;28;45443;-81
2022/02/05 00:04:56;;;;;;;;;7.00;4.00;;;;;8.12;57.43;102146.00;5041567;28;45245;-81
2022/02/05 00:07:23;;;;;;;;;5.25;4.75;;;;;8.07;57.55;102135.53;5040597;28;45419;-81
2022/02/05 00:15:14;;;;;;;;;3.50;3.25;;;;;8.07;58.11;102142.53;5040510;28;45415;-81
2022/02/05 00:33:11;;;;;;;;;7.50;5.00;;;;;8.08;57.86;102147.75;5040620;28;45856;-81
2022/02/05 00:42:29;;;;;;;;;4.75;4.75;;;;;8.01;58.38;102152.97;5040904;28;45907;-86
2022/02/05 00:44:55;;;;;;;;;8.75;6.75;;;;;7.97;58.77;102152.13;5041061;28;45428;-86
2022/02/05 00:47:21;;;;;;;;;7.75;4.50;;;;;7.93;58.45;102143.38;5036983;28;45375;-85
2022/02/05 00:49:51;;;;;;;;;7.00;4.00;;;;;7.91;58.52;102147.75;5029464;28;45351;-84
2022/02/05 00:52:18;;;;;;;;;5.75;5.00;;;;;7.86;58.47;102144.25;5040615;28;46392;-83
2022/02/05 00:54:48;;;;;;;;;5.50;4.75;;;;;7.83;58.82;102152.06;5039792;28;45872;-84
2022/02/05 00:59:54;;;;;;;;;5.00;5.00;;;;;7.77;58.95;102150.34;5036767;28;45407;-82
2022/02/05 01:02:20;;;;;;;;;3.00;3.00;;;;;7.71;59.18;102142.47;5040047;28;46542;-82
2022/02/05 01:04:45;;;;;;;;;8.50;7.00;;;;;7.68;59.26;102148.56;5039591;28;45392;-82
2022/02/05 01:07:11;;;;;;;;;8.50;6.00;;;;;7.64;59.40;102154.66;5040068;28;45351;-83
2022/02/05 01:09:37;;;;;;;;;4.00;2.75;;;;;7.64;59.22;102155.56;5040532;28;45435;-82
2022/02/05 01:12:03;;;;;;;;;7.50;6.00;;;;;7.64;59.52;102150.31;5050081;28;46223;-83
2022/02/05 01:14:40;;;;;;;;;5.00;3.75;;;;;7.63;59.65;102158.19;5029696;28;45240;-82
2022/02/05 01:17:08;;;;;;;;;4.75;4.00;;;;;7.63;59.38;102163.41;5025351;28;45244;-82
2022/02/05 01:22:40;;;;;;;;;10.00;10.00;;;;;7.57;60.17;102169.50;4997994;28;45492;-84
2022/02/05 01:25:06;;;;;;;;;16.25;13.50;;;;;7.56;60.39;102174.69;4997717;28;45412;-85
2022/02/05 01:27:49;;;;;;;;;20.25;16.25;;;;;7.51;59.72;102175.56;5018253;28;45354;-84
2022/02/05 01:30:23;;;;;;;;;17.50;16.75;;;;;7.48;60.14;102190.41;5038784;28;45491;-85
2022/02/05 01:36:00;;;;;;;;;19.00;17.00;;;;;7.36;59.83;102197.31;5010781;28;45490;-84
2022/02/05 01:54:51;;;;;;;;;20.50;14.00;;;;;7.06;60.27;102205.03;5037395;28;45224;-86
2022/02/05 01:57:24;;;;;;;;;19.25;14.75;;;;;7.03;60.33;102217.22;5026537;28;45417;-85
2022/02/05 02:05:05;;;;;;;;;19.50;13.00;;;;;6.92;60.86;102219.75;5037216;28;45774;-86
2022/02/05 02:15:45;;;;;;;;;17.00;13.75;;;;;6.77;60.88;102225.75;5038067;28;46198;-84
2022/02/05 02:26:35;;;;;;;;;8.00;8.00;;;;;6.68;61.48;102239.63;5039078;28;45877;-87
2022/02/05 02:29:06;;;;;;;;;9.25;9.00;;;;;6.67;61.35;102243.13;5026248;28;45732;-87
2022/02/05 02:31:37;;;;;;;;;9.50;8.25;;;;;6.64;61.50;102241.38;5039123;28;45304;-86
2022/02/05 02:34:06;;;;;;;;;11.25;10.75;;;;;6.60;61.29;102236.94;5037284;28;45289;-87
2022/02/05 02:36:37;;;;;;;;;8.75;8.50;;;;;6.58;61.42;102247.41;5038726;28;46380;-87
2022/02/05 02:39:12;;;;;;;;;12.25;10.00;;;;;6.53;61.17;102247.38;5017823;28;45705;-86
2022/02/05 02:41:49;;;;;;;;;10.50;9.00;;;;;6.49;61.16;102248.22;5039341;28;45286;-83
2022/02/05 02:44:14;;;;;;;;;11.50;10.00;;;;;6.49;61.92;102256.03;5027926;28;45249;-83
2022/02/05 02:46:40;;;;;;;;;10.50;8.00;;;;;6.47;61.88;102256.91;5038431;28;45383;-83
2022/02/05 02:49:07;;;;;;;;;8.00;8.00;;;;;6.43;61.83;102247.25;5039104;28;45443;-83
2022/02/05 02:59:50;;;;;;;;;5.75;4.75;;;;;6.29;61.84;102268.91;5034799;28;45371;-83
2022/02/05 03:02:19;;;;;;;;;15.50;9.25;;;;;6.28;62.10;102268.03;5038964;28;45304;-84
2022/02/05 03:04:44;;;;;;;;;6.75;5.25;;;;;6.25;61.88;102252.31;5037441;28;45612;-84
2022/02/05 03:07:10;;;;;;;;;8.00;7.50;;;;;6.26;62.27;102263.66;5036237;28;46671;-84
2022/02/05 03:09:36;;;;;;;;;9.00;9.00;;;;;6.23;61.75;102259.28;5020863;28;45328;-82
2022/02/05 03:12:02;;;;;;;;;9.25;9.25;;;;;6.22;61.91;102257.53;5044110;28;45454;-81
2022/02/05 03:14:27;;;;;;;;;8.25;8.25;;;;;6.20;61.95;102261.84;5038256;28;45458;-82
2022/02/05 03:17:01;;;;;;;;;10.25;8.00;;;;;6.16;62.00;102268.78;5038775;28;45488;-82
2022/02/05 03:19:26;;;;;;;;;12.25;10.00;;;;;6.16;62.23;102275.75;5037404;28;45889;-84
2022/02/05 03:21:52;;;;;;;;;8.00;6.25;;;;;6.15;61.97;102281.84;5038511;28;45436;-84
2022/02/05 03:24:17;;;;;;;;;8.00;8.00;;;;;6.12;62.07;102290.50;5020936;28;47290;-82
2022/02/05 03:26:42;;;;;;;;;13.00;8.25;;;;;6.07;62.00;102286.97;5023653;28;46312;-80
2022/02/05 03:29:10;;;;;;;;;11.00;9.00;;;;;6.06;62.62;102293.88;5039355;28;45356;-81
2022/02/05 03:31:36;;;;;;;;;9.25;6.50;;;;;6.03;62.45;102288.63;5042099;28;45220;-81
2022/02/05 03:34:03;;;;;;;;;11.00;6.50;;;;;6.00;62.49;102288.59;5041893;28;45241;-81
2022/02/05 03:36:28;;;;;;;;;7.00;7.00;;;;;6.00;62.58;102291.19;5015536;28;47227;-84
2022/02/05 03:38:54;;;;;;;;;9.50;8.00;;;;;6.02;62.47;102296.44;5036919;28;45470;-82
2022/02/05 03:41:19;;;;;;;;;10.25;9.00;;;;;5.99;62.44;102291.19;5041634;28;45503;-82
2022/02/05 03:43:45;;;;;;;;;10.00;9.75;;;;;5.97;62.96;102294.63;5041964;28;45422;-82
2022/02/05 03:46:10;;;;;;;;;16.25;12.50;;;;;5.94;62.74;102293.75;5036661;28;45429;-82
2022/02/05 03:48:36;;;;;;;;;10.50;9.50;;;;;5.95;62.39;102300.72;5035009;28;45445;-82
2022/02/05 03:51:01;;;;;;;;;11.25;11.25;;;;;5.94;62.42;102312.91;5041339;28;45530;-85
2022/02/05 03:53:27;;;;;;;;;11.50;10.00;;;;;5.96;62.78;102310.28;5023422;28;46317;-83
2022/02/05 03:55:52;;;;;;;;;10.00;9.00;;;;;5.93;62.81;102310.25;5032848;28;45375;-83
2022/02/05 03:58:17;;;;;;;;;14.75;12.75;;;;;5.91;62.57;102311.97;5041782;28;45374;-83
2022/02/05 04:00:43;;;;;;;;;9.75;9.25;;;;;5.91;62.61;102304.13;5041133;28;45507;-82
2022/02/05 04:03:09;;;;;;;;;13.00;10.00;;;;;5.89;62.39;102316.31;5041383;28;45222;-82
2022/02/05 04:05:34;;;;;;;;;13.00;11.00;;;;;5.89;62.65;102318.91;5041079;28;45253;-82
2022/02/05 04:08:01;;;;;;;;;8.00;6.50;;;;;5.87;62.51;102316.28;5040714;28;45445;-82
2022/02/05 04:10:31;;;;;;;;;14.00;11.50;;;;;5.86;62.68;102322.34;5042116;28;45410;-81
2022/02/05 04:18:26;;;;;;;;;22.75;14.00;;;;;5.82;62.54;102321.47;5024521;28;45810;-84
2022/02/05 04:20:52;;;;;;;;;17.25;15.75;;;;;5.79;63.13;102318.81;5036854;28;45434;-83
2022/02/05 04:23:18;;;;;;;;;11.25;9.75;;;;;5.81;63.04;102327.53;5036728;28;45495;-83
2022/02/05 04:25:43;;;;;;;;;16.75;11.75;;;;;5.79;63.01;102315.31;5035792;28;46515;-84
2022/02/05 04:28:09;;;;;;;;;15.25;12.50;;;;;5.81;62.77;102318.81;5041205;28;45234;-87
2022/02/05 04:30:35;;;;;;;;;13.75;10.00;;;;;5.79;63.15;102323.13;5023228;28;45245;-85
2022/02/05 04:33:01;;;;;;;;;15.25;10.50;;;;;5.75;62.98;102319.63;5038637;28;45540;-84
2022/02/05 04:35:26;;;;;;;;;12.25;11.25;;;;;5.73;62.96;102313.47;5032251;28;45213;-87
2022/02/05 04:37:55;;;;;;;;;13.75;10.25;;;;;5.73;63.21;102321.31;5040290;28;45332;-91
2022/02/05 04:43:09;;;;;;;;;11.50;11.50;;;;;5.70;62.88;102322.19;5040704;28;46668;-91
2022/02/05 05:09:12;;;;;;;;;11.50;9.50;;;;;5.63;63.66;102317.72;5028714;28;45269;-89
2022/02/05 05:11:45;;;;;;;;;11.25;8.25;;;;;5.66;63.50;102319.47;5043063;28;45217;-89
2022/02/05 05:22:17;;;;;;;;;11.00;9.00;;;;;5.61;63.46;102333.34;5026482;28;45287;-88
2022/02/05 05:24:43;;;;;;;;;8.75;7.00;;;;;5.63;63.44;102339.47;5040341;28;45288;-88
2022/02/05 05:27:09;;;;;;;;;10.75;9.00;;;;;5.66;63.43;102342.97;5022121;28;47341;-88
2022/02/05 05:29:35;;;;;;;;;11.25;8.00;;;;;5.59;63.36;102329.84;5028000;28;45829;-88
2022/02/05 05:32:00;;;;;;;;;9.50;9.50;;;;;5.60;63.19;102335.94;5039911;28;45367;-88
2022/02/05 05:34:25;;;;;;;;;11.50;9.75;;;;;5.60;63.38;102335.94;5021943;28;45486;-88
2022/02/05 05:36:53;;;;;;;;;11.50;9.75;;;;;5.56;63.00;102340.22;5038831;28;46455;-90
2022/02/05 05:39:18;;;;;;;;;12.25;10.00;;;;;5.53;63.07;102336.72;5040060;28;45780;-89
2022/02/05 05:41:43;;;;;;;;;11.25;10.00;;;;;5.51;63.16;102340.16;5040460;28;45531;-86
2022/02/05 05:46:44;;;;;;;;;11.75;11.50;;;;;5.43;63.12;102339.19;5039085;28;45299;-84
2022/02/05 05:51:34;;;;;;;;;11.50;10.25;;;;;5.41;63.46;102343.50;5039462;28;45278;-90
2022/02/05 05:54:00;;;;;;;;;9.75;5.75;;;;;5.42;63.24;102342.66;5019402;28;45979;-89
2022/02/05 05:56:25;;;;;;;;;9.75;8.00;;;;;5.39;63.59;102338.25;5009472;28;47123;-89
2022/02/05 05:58:51;;;;;;;;;14.00;10.00;;;;;5.41;63.74;102346.09;5017119;28;45489;-90
2022/02/05 06:01:16;;;;;;;;;11.50;8.75;;;;;5.39;63.38;102338.25;5039559;28;45265;-89
2022/02/05 06:03:41;;;;;;;;;12.75;9.00;;;;;5.35;63.72;102340.81;5021707;28;46761;-84
2022/02/05 06:06:07;;;;;;;;;8.50;8.00;;;;;5.38;63.65;102351.28;5039537;28;46228;-84
2022/02/05 06:08:32;;;;;;;;;10.25;8.00;;;;;5.33;63.59;102348.63;5038583;28;45248;-85
2022/02/05 06:10:58;;;;;;;;;9.00;8.25;;;;;5.33;63.66;102347.75;5040038;28;45134;-85
2022/02/05 06:13:23;;;;;;;;;11.50;9.00;;;;;5.34;63.67;102352.97;5021532;28;45921;-86
2022/02/05 06:15:51;;;;;;;;;9.00;9.00;;;;;5.31;63.12;102350.31;5039513;28;45173;-87
2022/02/05 06:18:16;;;;;;;;;8.25;7.50;;;;;5.32;63.63;102359.00;5021425;28;45827;-87
2022/02/05 06:20:41;;;;;;;;;7.75;7.50;;;;;5.28;63.56;102365.91;5038350;28;45331;-88
2022/02/05 06:23:07;;;;;;;;;8.75;8.75;;;;;5.26;63.61;102360.66;5038744;28;45332;-88
2022/02/05 06:25:33;;;;;;;;;11.25;11.25;;;;;5.25;63.64;102366.75;5021257;28;46035;-87
2022/02/05 06:27:59;;;;;;;;;11.25;11.25;;;;;5.24;63.73;102371.91;5021761;28;45178;-89
2022/02/05 06:30:25;;;;;;;;;10.50;9.25;;;;;5.21;63.85;102374.50;5032316;28;45275;-92
2022/02/05 06:32:50;;;;;;;;;12.25;10.50;;;;;5.19;63.76;102377.06;5018699;28;47269;-88
2022/02/05 06:35:16;;;;;;;;;12.75;9.75;;;;;5.16;63.56;102375.28;5019276;28;45254;-87
2022/02/05 06:37:42;;;;;;;;;9.00;9.00;;;;;5.13;63.65;102374.38;5019993;28;45254;-87
2022/02/05 06:40:08;;;;;;;;;10.25;9.75;;;;;5.09;63.46;102373.44;5023696;28;45474;-88
2022/02/05 06:42:35;;;;;;;;;17.75;13.00;;;;;5.05;63.65;102376.84;5039227;28;45496;-86
2022/02/05 06:45:00;;;;;;;;;13.00;10.00;;;;;5.03;63.95;102373.34;5020851;28;46339;-87
2022/02/05 06:47:26;;;;;;;;;13.75;10.00;;;;;5.00;63.68;102381.09;5038247;28;45330;-88
2022/02/05 06:49:51;;;;;;;;;11.25;9.75;;;;;4.99;63.49;102385.41;5038724;28;45304;-88
2022/02/05 06:52:17;;;;;;;;;12.50;10.75;;;;;5.00;64.14;102401.94;5021128;28;46296;-89
2022/02/05 06:54:42;;;;;;;;;13.00;11.75;;;;;4.98;63.67;102395.84;5039032;28;46438;-87
2022/02/05 06:57:07;;;;;;;;;17.25;12.75;;;;;4.99;63.80;102400.22;5020147;28;45585;-84
2022/02/05 06:59:33;;;;;;;;;20.25;15.25;;;;;4.98;63.56;102408.88;5040305;28;45321;-86
2022/02/05 07:01:58;;;;;;;;;14.75;10.75;;;;;4.97;64.01;102404.50;5042525;28;45570;-88
2022/02/05 07:04:26;;;;;;;;;13.75;11.25;;;;;4.95;64.42;102399.25;5024298;28;47027;-89
2022/02/05 07:06:54;;;;;;;;;12.50;11.25;;;;;4.92;64.60;102407.91;5023839;28;45741;-89
2022/02/05 07:09:22;;;;;;;;;11.50;10.25;;;;;4.92;63.93;102417.44;5037280;28;45485;-88
2022/02/05 07:11:48;;;;;;;;;14.50;12.50;;;;;4.90;64.13;102421.75;5038769;28;45558;-88
2022/02/05 07:14:15;;;;;;;;;13.50;11.50;;;;;4.90;64.25;102427.84;5021719;28;48060;-89
2022/02/05 07:16:49;;;;;;;;;11.50;11.00;;;;;4.88;64.15;102429.56;5040196;28;45347;-89
2022/02/05 07:19:23;;;;;;;;;14.75;12.75;;;;;4.89;64.37;102431.28;5041402;28;45482;-83
2022/02/05 07:21:52;;;;;;;;;12.50;11.00;;;;;4.88;64.02;102439.97;5041455;28;45214;-86
2022/02/05 07:24:54;;;;;;;;;14.75;13.75;;;;;4.88;64.61;102442.59;5041928;28;45304;-86
2022/02/05 07:30:04;;;;;;;;;14.00;12.00;;;;;4.86;64.16;102435.59;5042194;28;45224;-88
2022/02/05 07:32:30;;;;;;;;;16.00;14.25;;;;;4.86;64.62;102438.19;5042252;28;45374;-90
2022/02/05 07:34:55;;;;;;;;;15.25;13.75;;;;;4.89;64.95;102439.09;5023304;28;46940;-91
2022/02/05 07:37:20;;;;;;;;;17.50;14.25;;;;;4.93;65.15;102435.72;5023432;28;45662;-89
2022/02/05 07:39:48;;;;;;;;;16.50;13.75;;;;;4.96;65.62;102434.91;5018538;28;45520;-94
2022/02/05 07:42:18;;;;;;;;;15.75;15.00;;;;;5.03;65.45;102441.09;5032304;28;47302;-89
2022/02/05 07:44:44;;;;;;;;;14.25;13.25;;;;;5.10;65.91;102444.69;5034371;28;46160;-87
2022/02/05 07:47:09;;;;;;;;;16.00;14.00;;;;;5.17;65.69;102438.72;5030346;28;45285;-85
2022/02/05 07:49:40;;;;;;;;;13.00;10.25;;;;;5.22;65.85;102442.28;5035670;28;45464;-88
2022/02/05 07:52:06;;;;;;;;;16.25;14.00;;;;;5.31;65.93;102452.00;5035925;28;45717;-88
2022/02/05 07:54:31;;;;;;;;;10.25;9.75;;;;;5.40;66.09;102452.16;5032328;28;45407;-89
2022/02/05 07:56:57;;;;;;;;;16.50;15.75;;;;;5.48;65.70;102454.03;5033837;28;45592;-94
2022/02/05 07:59:22;;;;;;;;;16.75;10.50;;;;;5.52;65.22;102458.44;5017536;28;45447;-93
2022/02/05 08:01:48;;;;;;;;;17.75;14.00;;;;;5.56;65.11;102448.91;5023393;28;46112;-92
2022/02/05 08:04:13;;;;;;;;;14.25;13.50;;;;;5.60;65.56;102458.56;5019891;28;47029;-90
2022/02/05 08:06:39;;;;;;;;;20.75;15.75;;;;;5.63;64.91;102458.59;5039365;28;45441;-92
2022/02/05 08:09:23;;;;;;;;;19.75;15.00;;;;;5.65;65.22;102464.72;5034942;28;45298;-90
2022/02/05 08:12:05;;;;;;;;;16.50;15.25;;;;;5.68;65.05;102466.50;5050023;28;45413;-90
2022/02/05 08:14:34;;;;;;;;;20.75;14.00;;;;;5.65;64.87;102459.50;5040573;28;46121;-91
2022/02/05 08:17:03;;;;;;;;;19.25;17.50;;;;;5.66;64.73;102455.16;5042215;28;45603;-90
2022/02/05 08:19:29;;;;;;;;;22.00;21.50;;;;;5.63;64.71;102450.75;5026994;28;45453;-90
2022/02/05 08:21:54;;;;;;;;;27.25;23.75;;;;;5.66;64.46;102456.03;5021688;28;46441;-91
2022/02/05 08:24:20;;;;;;;;;25.75;22.00;;;;;5.63;64.94;102455.97;5031653;28;46971;-88
2022/02/05 08:26:45;;;;;;;;;37.25;21.50;;;;;5.62;64.79;102449.91;5027756;28;45287;-90
2022/02/05 08:29:13;;;;;;;;;27.75;24.00;;;;;5.67;64.37;102456.91;5038605;28;46179;-89
2022/02/05 08:31:38;;;;;;;;;27.75;20.75;;;;;5.64;64.79;102447.31;5038031;28;45971;-90
2022/02/05 08:34:04;;;;;;;;;25.25;21.00;;;;;5.65;64.98;102445.59;5025094;28;48024;-90
2022/02/05 08:36:44;;;;;;;;;25.50;22.25;;;;;5.69;64.92;102448.25;5039606;28;45560;-90
2022/02/05 08:39:11;;;;;;;;;22.00;20.00;;;;;5.68;64.97;102443.03;5022519;28;46681;-90
2022/02/05 08:41:37;;;;;;;;;25.75;21.25;;;;;5.73;65.34;102443.94;5040717;28;45543;-90
2022/02/05 08:44:03;;;;;;;;;22.25;18.00;;;;;5.74;65.57;102443.09;5029615;28;48505;-91
2022/02/05 08:46:28;;;;;;;;;24.00;18.00;;;;;5.78;65.15;102447.50;5022220;28;45618;-89
2022/02/05 08:48:53;;;;;;;;;19.25;17.00;;;;;5.82;65.64;102444.13;5022274;28;45310;-91
2022/02/05 08:51:19;;;;;;;;;28.00;17.75;;;;;5.85;65.68;102448.50;5022692;28;46885;-89
2022/02/05 08:53:44;;;;;;;;;24.25;17.50;;;;;5.87;65.63;102441.56;5021405;28;47211;-90
2022/02/05 08:56:10;;;;;;;;;21.50;19.50;;;;;5.92;65.17;102449.47;5020332;28;45498;-91
2022/02/05 08:58:35;;;;;;;;;18.75;18.00;;;;;5.94;65.97;102459.06;5038883;28;46017;-91
2022/02/05 09:04:13;;;;;;;;;17.00;14.75;;;;;6.04;65.94;102457.47;5009719;28;45712;-91
2022/02/05 09:06:41;;;;;;;;;15.75;13.75;;;;;6.06;65.91;102454.88;5021941;28;46085;-91
2022/02/05 09:09:29;;;;;;;;;15.00;12.00;;;;;6.12;65.41;102457.59;5040330;28;45254;-91
2022/02/05 09:12:01;;;;;;;;;13.25;11.00;;;;;6.15;65.61;102460.25;5039775;28;45555;-91
2022/02/05 09:16:52;;;;;;;;;14.75;12.50;;;;;6.24;65.56;102472.56;5040488;28;45212;-91
2022/02/05 09:19:18;;;;;;;;;15.00;14.75;;;;;6.27;65.87;102464.75;5039078;28;45520;-92
2022/02/05 09:21:43;;;;;;;;;10.50;10.00;;;;;6.30;66.06;102472.63;5018912;28;46303;-91
2022/02/05 09:24:09;;;;;;;;;11.00;8.50;;;;;6.37;65.77;102470.09;5022133;28;46226;-91
2022/02/05 09:26:38;;;;;;;;;10.50;5.75;;;;;6.44;65.71;102474.56;5022518;28;45413;-91
2022/02/05 09:29:11;;;;;;;;;7.25;4.25;;;;;6.50;65.80;102476.34;5022410;28;45480;-90
2022/02/05 09:31:37;;;;;;;;;11.00;5.50;;;;;6.57;65.88;102465.09;5039865;28;45356;-90
2022/02/05 09:34:04;;;;;;;;;7.50;7.50;;;;;6.63;65.97;102466.91;5040220;28;46415;-91
2022/02/05 09:36:31;;;;;;;;;7.50;5.25;;;;;6.69;65.60;102464.38;5020939;28;45296;-91
2022/02/05 09:38:56;;;;;;;;;9.25;5.75;;;;;6.75;66.43;102469.69;5022142;28;45284;-90
2022/02/05 09:41:24;;;;;;;;;8.75;7.00;;;;;6.82;65.62;102464.50;5038374;28;45255;-90
2022/02/05 09:43:50;;;;;;;;;4.75;4.75;;;;;6.90;66.01;102472.44;5020590;28;46358;-90
2022/02/05 09:46:18;;;;;;;;;9.00;6.00;;;;;6.97;65.88;102461.19;5036623;28;45844;-90
2022/02/05 09:48:45;;;;;;;;;9.00;8.25;;;;;7.02;65.55;102461.22;5038001;28;45403;-89
2022/02/05 09:51:18;;;;;;;;;9.00;8.50;;;;;7.08;65.76;102451.72;5034891;28;46849;-89
2022/02/05 09:53:49;;;;;;;;;9.75;6.00;;;;;7.14;65.40;102456.09;5037907;28;45409;-90
2022/02/05 09:56:15;;;;;;;;;10.50;8.50;;;;;7.20;65.33;102455.31;5038273;28;45389;-86
2022/02/05 09:58:40;;;;;;;;;7.50;7.50;;;;;7.19;65.00;102462.25;5021063;28;45465;-89
2022/02/05 10:01:13;;;;;;;;;10.75;9.75;;;;;7.24;65.46;102458.81;5037704;28;45309;-87
2022/02/05 10:03:41;;;;;;;;;9.50;7.75;;;;;7.29;65.56;102467.56;5038487;28;45610;-88
2022/02/05 10:06:09;;;;;;;;;8.75;6.75;;;;;7.37;65.10;102468.53;5037904;28;45840;-89
2022/02/05 10:08:36;;;;;;;;;7.00;6.00;;;;;7.41;65.33;102470.28;5038430;28;45303;-88
2022/02/05 10:11:03;;;;;;;;;10.75;10.00;;;;;7.50;64.91;102471.25;5038126;28;45455;-87
2022/02/05 10:13:29;;;;;;;;;10.75;9.50;;;;;7.54;65.22;102465.16;5036715;28;46309;-86
2022/02/05 10:15:57;;;;;;;;;11.25;7.75;;;;;7.58;65.16;102464.31;5037620;28;46000;-87
2022/02/05 10:18:30;;;;;;;;;7.25;6.00;;;;;7.67;65.40;102468.75;5037946;28;45453;-84
2022/02/05 10:20:58;;;;;;;;;6.50;4.00;;;;;7.70;65.13;102460.94;5029446;28;45421;-89
2022/02/05 10:23:25;;;;;;;;;5.75;4.75;;;;;7.78;65.20;102473.19;5025583;28;46556;-91
2022/02/05 10:25:53;;;;;;;;;6.00;5.00;;;;;7.81;64.98;102470.56;5020248;28;46121;-89
2022/02/05 10:28:19;;;;;;;;;6.75;6.00;;;;;7.85;64.61;102472.38;5025304;28;45383;-90
2022/02/05 10:30:51;;;;;;;;;5.25;5.00;;;;;7.90;64.76;102480.25;5038131;28;45319;-91
2022/02/05 10:33:22;;;;;;;;;5.50;5.00;;;;;7.94;64.67;102482.00;5020310;28;47417;-90
2022/02/05 10:36:13;;;;;;;;;5.00;3.50;;;;;7.98;64.52;102483.78;5000203;28;1208200;-90
2022/02/05 10:43:54;;;;;;;;;5.50;4.00;;;;;8.13;64.28;102484.72;5036040;28;45426;-82
2022/02/05 10:46:20;;;;;;;;;5.25;3.50;;;;;8.20;64.89;102483.91;5042683;28;45267;-88
2022/02/05 10:48:46;;;;;;;;;5.00;5.00;;;;;8.27;64.61;102496.16;5042678;28;45393;-86
2022/02/05 10:51:13;;;;;;;;;4.00;3.75;;;;;8.33;64.30;102490.09;5043039;28;45227;-90
2022/02/05 10:53:53;;;;;;;;;7.00;6.00;;;;;8.37;64.34;102491.84;5024962;28;47299;-91
2022/02/05 10:56:31;;;;;;;;;4.50;4.50;;;;;8.45;63.96;102494.50;5042979;28;45358;-91
2022/02/05 11:07:21;;;;;;;;;4.00;3.00;;;;;8.71;63.29;102496.41;5041994;28;45847;-86
2022/02/05 11:09:50;;;;;;;;;4.00;3.25;;;;;8.76;63.49;102497.28;5042481;28;45356;-85
2022/02/05 11:20:17;;;;;;;;;5.50;4.00;;;;;8.97;63.49;102502.56;5042346;28;45348;-85
2022/02/05 11:22:49;;;;;;;;;6.25;5.25;;;;;9.02;62.93;102489.47;5041799;28;45494;-87
2022/02/05 11:25:16;;;;;;;;;5.25;4.75;;;;;9.10;62.27;102491.25;5023531;28;47381;-86
2022/02/05 11:27:50;;;;;;;;;5.00;4.00;;;;;9.15;62.20;102493.88;5041715;28;45608;-87
2022/02/05 11:30:31;;;;;;;;;3.25;3.00;;;;;9.24;61.90;102490.38;5042125;28;45275;-88
2022/02/05 11:33:03;;;;;;;;;5.50;5.50;;;;;9.25;61.50;102492.13;5024098;28;47136;-87
2022/02/05 11:36:08;;;;;;;;;4.50;2.00;;;;;9.31;61.89;102493.91;5041750;28;45348;-87
2022/02/05 11:38:32;;;;;;;;;4.00;2.00;;;;;9.39;61.57;102483.38;5041051;28;45603;-89
2022/02/05 11:41:00;;;;;;;;;5.50;3.00;;;;;9.48;61.19;102479.91;5023799;28;45220;-89
2022/02/05 11:43:33;;;;;;;;;5.00;2.00;;;;;9.58;61.73;102481.63;5040604;28;47415;-86
2022/02/05 11:46:08;;;;;;;;;5.00;5.00;;;;;9.64;61.25;102463.25;5041354;28;46305;-86
2022/02/05 11:48:38;;;;;;;;;6.25;4.50;;;;;9.76;61.16;102462.34;5041569;28;45680;-87
2022/02/05 11:51:12;;;;;;;;;5.50;3.75;;;;;9.85;60.15;102474.59;5041599;28;45303;-88
2022/02/05 11:54:10;;;;;;;;;5.50;4.00;;;;;9.95;59.91;102471.97;5041672;28;45461;-86
2022/02/05 11:59:20;;;;;;;;;5.00;2.00;;;;;10.09;60.85;102475.44;5041644;28;45385;-86
2022/02/05 12:01:46;;;;;;;;;6.75;4.25;;;;;10.13;60.18;102468.38;5021504;28;45455;-87
2022/02/05 12:04:19;;;;;;;;;2.75;2.50;;;;;10.22;59.41;102467.50;5041434;28;45278;-86
2022/02/05 12:07:00;;;;;;;;;4.50;3.50;;;;;10.28;60.08;102453.44;5041109;28;45562;-85
2022/02/05 12:09:46;;;;;;;;;2.00;2.00;;;;;10.32;58.40;102461.31;5041420;28;45778;-89
2022/02/05 12:12:35;;;;;;;;;2.00;2.00;;;;;10.40;59.03;102463.03;5034588;28;45403;-87
2022/02/05 12:15:16;;;;;;;;;2.00;1.50;;;;;10.43;58.61;102453.38;5022069;28;46282;-86
2022/02/05 12:20:32;;;;;;;;;2.75;1.25;;;;;10.50;58.25;102451.59;5041326;28;45710;-87
2022/02/05 12:23:14;;;;;;;;;1.00;1.00;;;;;10.50;58.35;102445.47;5040722;28;45165;-88
2022/02/05 12:25:57;;;;;;;;;3.25;2.25;;;;;10.54;57.64;102448.09;5041461;28;45285;-86
2022/02/05 12:28:29;;;;;;;;;1.75;1.75;;;;;10.55;57.75;102443.72;5022526;28;48513;-85
2022/02/05 12:31:02;;;;;;;;;1.00;1.00;;;;;10.54;57.74;102440.19;5023106;28;46039;-87
2022/02/05 12:33:42;;;;;;;;;2.75;2.75;;;;;10.56;56.92;102442.84;5041125;28;45280;-86
2022/02/05 12:36:08;;;;;;;;;2.50;1.00;;;;;10.53;56.85;102435.84;5040451;28;45849;-86
2022/02/05 12:38:43;;;;;;;;;3.25;2.50;;;;;10.50;57.03;102438.44;5041217;28;46703;-86
2022/02/05 12:41:11;;;;;;;;;2.50;2.00;;;;;10.46;57.08;102434.97;5023082;28;45368;-87
2022/02/05 12:44:00;;;;;;;;;3.00;3.00;;;;;10.47;56.99;102431.44;5040742;28;45184;-87
2022/02/05 12:46:37;;;;;;;;;2.00;2.00;;;;;10.44;56.88;102427.97;5022405;28;46238;-92
2022/02/05 12:49:07;;;;;;;;;3.50;2.00;;;;;10.41;56.89;102425.34;5022662;28;47305;-91
2022/02/05 12:51:33;;;;;;;;;3.00;1.50;;;;;10.41;56.83;102423.59;5039770;28;45546;-88
2022/02/05 12:54:15;;;;;;;;;2.00;2.00;;;;;10.43;56.97;102415.69;5031252;28;45431;-87
2022/02/05 12:56:43;;;;;;;;;2.00;2.00;;;;;10.43;57.03;102418.34;5039660;28;45218;-89
2022/02/05 12:59:26;;;;;;;;;2.00;2.00;;;;;10.43;57.10;102420.97;5022664;28;48358;-89
2022/02/05 13:01:57;;;;;;;;;5.25;5.00;;;;;10.45;56.32;102421.81;5022724;28;45580;-92
2022/02/05 13:04:25;;;;;;;;;1.25;1.25;;;;;10.43;55.19;102423.59;5022269;28;45290;-92
2022/02/05 13:07:09;;;;;;;;;2.00;2.00;;;;;10.44;54.86;102433.25;5039690;28;45447;-89
2022/02/05 13:09:41;;;;;;;;;2.00;1.00;;;;;10.45;54.65;102425.34;5022681;28;47379;-88
2022/02/05 13:12:09;;;;;;;;;1.25;1.00;;;;;10.49;54.46;102426.22;5052596;28;45905;-90
2022/02/05 13:14:37;;;;;;;;;1.00;0.00;;;;;10.55;54.51;102428.81;5040573;28;45329;-89
2022/02/05 13:17:05;;;;;;;;;3.25;1.00;;;;;10.60;55.02;102425.28;5022811;28;45781;-89
2022/02/05 13:19:51;;;;;;;;;1.25;1.00;;;;;10.65;54.31;102429.63;5038179;28;45835;-92
2022/02/05 13:35:59;;;;;;;;;2.00;2.00;;;;;10.80;52.01;102410.25;5036219;28;45489;-91
2022/02/05 13:38:27;;;;;;;;;1.00;1.00;;;;;10.77;52.50;102398.88;5024128;28;46004;-88
2022/02/05 13:41:03;;;;;;;;;0.00;0.00;;;;;10.74;51.53;102405.03;5021670;28;47439;-88
2022/02/05 13:43:40;;;;;;;;;2.50;1.00;;;;;10.72;51.00;102400.69;5040208;28;45405;-87
2022/02/05 13:46:14;;;;;;;;;2.00;1.00;;;;;10.75;51.26;102405.91;5022215;28;45273;-88
2022/02/05 13:48:41;;;;;;;;;1.25;1.25;;;;;10.75;51.97;102393.63;5021693;28;47496;-87
2022/02/05 13:51:08;;;;;;;;;2.00;1.00;;;;;10.78;52.18;102396.25;5039392;28;45585;-88
2022/02/05 13:53:34;;;;;;;;;3.00;2.00;;;;;10.80;51.45;102383.06;5022115;28;45470;-89
2022/02/05 13:56:04;;;;;;;;;1.50;0.00;;;;;10.79;50.95;102384.81;5039783;28;45333;-88
2022/02/05 13:58:40;;;;;;;;;2.00;1.00;;;;;10.80;51.63;102377.81;5021176;28;46116;-88
2022/02/05 14:01:06;;;;;;;;;1.25;1.25;;;;;10.84;51.18;102384.78;5039777;28;46274;-88
2022/02/05 14:03:40;;;;;;;;;1.75;1.00;;;;;10.82;49.80;102370.78;5039735;28;45309;-87
2022/02/05 14:06:13;;;;;;;;;1.00;1.00;;;;;10.79;49.22;102369.03;5039656;28;45298;-88
2022/02/05 14:08:50;;;;;;;;;1.00;1.00;;;;;10.80;50.03;102367.28;5039436;28;45472;-88
2022/02/05 14:11:33;;;;;;;;;4.00;0.00;;;;;10.83;50.37;102377.81;5047865;28;45483;-88
2022/02/05 14:14:01;;;;;;;;;0.00;0.00;;;;;10.83;47.68;102380.44;5039782;28;45458;-89
2022/02/05 14:16:30;;;;;;;;;0.50;0.00;;;;;10.84;49.45;102376.06;5039552;28;45482;-88
2022/02/05 14:18:58;;;;;;;;;0.25;0.00;;;;;10.86;49.45;102377.78;5025894;28;46366;-88
2022/02/05 14:21:46;;;;;;;;;0.00;0.00;;;;;10.89;49.27;102374.25;5021204;28;47139;-88
2022/02/05 14:24:20;;;;;;;;;2.00;1.00;;;;;10.91;49.16;102378.59;5021608;28;45657;-87
2022/02/05 14:27:05;;;;;;;;;0.75;0.75;;;;;10.91;49.42;102372.47;5009834;28;45259;-88
2022/02/05 14:29:39;;;;;;;;;2.25;1.25;;;;;10.93;49.12;102368.06;5021524;28;46241;-87
2022/02/05 14:32:20;;;;;;;;;0.75;0.75;;;;;10.93;48.80;102367.19;5039466;28;45232;-89